createdAt,value
2018-06-28T00:01:22.120Z,18.84
2018-06-28T00:02:22.041Z,18.69
2018-06-28T00:04:14.814Z,18.78
2018-06-28T00:05:14.757Z,18.83
2018-06-28T00:07:07.543Z,18.84
2018-06-28T00:08:07.484Z,18.84
2018-06-28T00:10:00.308Z,18.91
2018-06-28T00:11:00.185Z,18.94
2018-06-28T00:12:52.982Z,18.84
2018-06-28T00:13:52.907Z,18.90
2018-06-28T00:15:45.707Z,18.91
2018-06-28T00:16:45.653Z,18.86
2018-06-28T00:18:38.403Z,18.87
2018-06-28T00:19:38.342Z,18.84
2018-06-28T00:21:31.188Z,18.83
2018-06-28T00:22:31.084Z,18.78
2018-06-28T00:24:23.857Z,18.60
2018-06-28T00:25:23.798Z,18.64
2018-06-28T00:27:16.588Z,18.57
2018-06-28T00:28:16.510Z,18.47
2018-06-28T00:30:09.281Z,18.35
2018-06-28T00:31:09.225Z,18.36
2018-06-28T00:33:02.048Z,18.38
2018-06-28T00:34:01.975Z,18.32
2018-06-28T00:35:54.750Z,18.23
2018-06-28T00:36:54.669Z,18.25
2018-06-28T00:38:47.443Z,18.29
2018-06-28T00:39:47.383Z,18.19
2018-06-28T00:41:40.178Z,18.19
2018-06-28T00:42:40.104Z,18.32
2018-06-28T00:44:32.899Z,18.13
2018-06-28T00:45:32.835Z,17.99
2018-06-28T00:47:25.645Z,18.23
2018-06-28T00:48:25.568Z,18.09
2018-06-28T00:50:18.379Z,17.98
2018-06-28T00:51:18.304Z,17.77
2018-06-28T00:53:11.096Z,17.91
2018-06-28T00:54:11.018Z,17.79
2018-06-28T00:56:03.818Z,17.92
2018-06-28T00:57:03.751Z,17.91
2018-06-28T00:58:56.563Z,17.92
2018-06-28T00:59:56.495Z,18.04
2018-06-28T01:01:49.291Z,18.02
2018-06-28T01:02:49.207Z,17.89
2018-06-28T01:04:41.986Z,17.92
2018-06-28T01:05:41.923Z,17.87
2018-06-28T01:07:34.725Z,17.74
2018-06-28T01:08:34.640Z,17.66
2018-06-28T01:10:27.435Z,17.46
2018-06-28T01:11:27.362Z,17.25
2018-06-28T01:13:20.148Z,17.24
2018-06-28T01:14:20.087Z,17.12
2018-06-28T01:16:12.878Z,17.02
2018-06-28T01:17:12.808Z,17.09
2018-06-28T01:19:05.587Z,17.12
2018-06-28T01:20:05.516Z,17.25
2018-06-28T01:21:58.318Z,17.09
2018-06-28T01:22:58.232Z,16.99
2018-06-28T01:24:51.015Z,17.02
2018-06-28T01:25:50.952Z,16.96
2018-06-28T01:27:43.755Z,16.99
2018-06-28T01:28:43.724Z,16.91
2018-06-28T01:30:36.448Z,16.80
2018-06-28T01:31:36.395Z,16.65
2018-06-28T01:33:29.179Z,16.81
2018-06-28T01:34:29.098Z,16.72
2018-06-28T01:36:21.884Z,16.81
2018-06-28T01:37:21.807Z,16.82
2018-06-28T01:39:14.636Z,16.84
2018-06-28T01:40:14.565Z,17.00
2018-06-28T01:42:07.352Z,16.95
2018-06-28T01:43:07.273Z,16.90
2018-06-28T01:45:00.079Z,16.90
2018-06-28T01:46:00.000Z,16.92
2018-06-28T01:47:52.795Z,16.87
2018-06-28T01:48:52.731Z,16.92
2018-06-28T01:50:45.493Z,16.98
2018-06-28T01:51:45.437Z,17.09
2018-06-28T01:53:38.217Z,17.00
2018-06-28T01:54:38.141Z,16.96
2018-06-28T01:56:30.928Z,17.03
2018-06-28T01:57:30.860Z,17.02
2018-06-28T01:59:23.660Z,16.88
2018-06-28T02:00:23.564Z,17.03
2018-06-28T02:02:16.357Z,17.05
2018-06-28T02:03:16.345Z,16.80
2018-06-28T02:05:09.097Z,17.03
2018-06-28T02:06:09.053Z,16.90
2018-06-28T02:08:01.858Z,17.03
2018-06-28T02:09:01.802Z,17.00
2018-06-28T02:10:54.632Z,16.98
2018-06-28T02:11:54.545Z,16.78
2018-06-28T02:13:47.327Z,16.87
2018-06-28T02:14:47.250Z,17.02
2018-06-28T02:16:40.038Z,17.00
2018-06-28T02:17:39.959Z,16.96
2018-06-28T02:19:32.768Z,16.99
2018-06-28T02:20:32.732Z,17.12
2018-06-28T02:22:25.460Z,17.15
2018-06-28T02:23:25.390Z,17.10
2018-06-28T02:25:18.192Z,17.06
2018-06-28T02:26:18.107Z,17.10
2018-06-28T02:28:10.907Z,17.02
2018-06-28T02:29:10.844Z,16.99
2018-06-28T02:31:03.634Z,16.91
2018-06-28T02:32:03.570Z,16.81
2018-06-28T02:33:56.344Z,16.85
2018-06-28T02:34:56.281Z,16.85
2018-06-28T02:36:49.067Z,16.88
2018-06-28T02:37:48.990Z,16.65
2018-06-28T02:39:41.790Z,16.77
2018-06-28T02:40:41.729Z,16.69
2018-06-28T02:42:34.481Z,16.91
2018-06-28T02:43:34.419Z,16.82
2018-06-28T02:45:27.216Z,16.90
2018-06-28T02:46:27.137Z,16.90
2018-06-28T02:48:19.920Z,16.98
2018-06-28T02:49:19.845Z,17.03
2018-06-28T02:51:12.641Z,17.07
2018-06-28T02:52:12.565Z,17.14
2018-06-28T02:54:05.352Z,17.14
2018-06-28T02:55:05.288Z,17.10
2018-06-28T02:56:58.075Z,17.15
2018-06-28T02:57:58.004Z,17.05
2018-06-28T02:59:50.807Z,17.00
2018-06-28T03:00:50.716Z,16.88
2018-06-28T03:02:43.493Z,16.99
2018-06-28T03:03:43.434Z,17.05
2018-06-28T03:05:36.565Z,17.00
2018-06-28T03:06:36.471Z,17.05
2018-06-28T03:08:29.249Z,17.10
2018-06-28T03:09:29.173Z,17.14
2018-06-28T03:11:21.959Z,17.00
2018-06-28T03:12:21.890Z,17.02
2018-06-28T03:14:14.664Z,17.09
2018-06-28T03:15:14.606Z,17.09
2018-06-28T03:17:07.379Z,17.12
2018-06-28T03:18:07.307Z,17.05
2018-06-28T03:20:00.079Z,17.14
2018-06-28T03:21:00.018Z,17.07
2018-06-28T03:22:52.988Z,17.18
2018-06-28T03:23:52.911Z,17.09
2018-06-28T03:25:45.690Z,17.15
2018-06-28T03:26:45.623Z,17.14
2018-06-28T03:28:38.400Z,17.18
2018-06-28T03:29:38.344Z,17.18
2018-06-28T03:31:31.136Z,17.21
2018-06-28T03:32:31.058Z,17.15
2018-06-28T03:34:23.843Z,17.36
2018-06-28T03:35:23.779Z,17.35
2018-06-28T03:37:16.569Z,17.35
2018-06-28T03:38:16.492Z,17.38
2018-06-28T03:40:09.269Z,17.33
2018-06-28T03:41:09.203Z,17.40
2018-06-28T03:43:01.997Z,17.43
2018-06-28T03:44:01.932Z,17.46
2018-06-28T03:45:54.710Z,17.51
2018-06-28T03:46:54.629Z,17.54
2018-06-28T03:48:47.412Z,17.51
2018-06-28T03:49:47.399Z,17.58
2018-06-28T03:51:40.131Z,17.62
2018-06-28T03:52:40.057Z,17.55
2018-06-28T03:54:32.843Z,17.63
2018-06-28T03:55:32.783Z,17.60
2018-06-28T03:57:25.589Z,17.55
2018-06-28T03:58:25.487Z,17.65
2018-06-28T04:00:18.262Z,17.65
2018-06-28T04:01:18.207Z,17.65
2018-06-28T04:03:10.998Z,17.58
2018-06-28T04:04:10.929Z,17.55
2018-06-28T04:06:03.723Z,17.55
2018-06-28T04:07:03.646Z,17.57
2018-06-28T04:08:56.446Z,17.57
2018-06-28T04:09:56.371Z,17.55
2018-06-28T04:11:49.194Z,17.53
2018-06-28T04:12:49.118Z,17.53
2018-06-28T04:14:41.902Z,17.38
2018-06-28T04:15:41.835Z,17.35
2018-06-28T04:17:34.633Z,17.47
2018-06-28T04:18:34.555Z,17.51
2018-06-28T04:20:27.344Z,17.51
2018-06-28T04:21:27.284Z,17.53
2018-06-28T04:23:20.095Z,17.65
2018-06-28T04:24:20.028Z,17.55
2018-06-28T04:26:12.931Z,17.71
2018-06-28T04:27:12.855Z,17.79
2018-06-28T04:29:05.650Z,17.73
2018-06-28T04:30:05.578Z,17.73
2018-06-28T04:31:58.374Z,17.87
2018-06-28T04:32:58.300Z,17.77
2018-06-28T04:34:51.080Z,17.81
2018-06-28T04:35:51.016Z,17.77
2018-06-28T04:37:43.815Z,17.92
2018-06-28T04:38:43.739Z,18.07
2018-06-28T04:40:36.525Z,18.20
2018-06-28T04:41:36.457Z,18.28
2018-06-28T04:43:29.255Z,18.38
2018-06-28T04:44:29.179Z,18.44
2018-06-28T04:46:21.981Z,18.57
2018-06-28T04:47:21.924Z,18.69
2018-06-28T04:49:14.705Z,18.83
2018-06-28T04:50:14.640Z,19.09
2018-06-28T04:52:07.442Z,19.52
2018-06-28T04:53:07.337Z,19.67
2018-06-28T04:55:00.169Z,19.98
2018-06-28T04:56:00.058Z,20.34
2018-06-28T04:57:52.907Z,20.93
2018-06-28T04:58:52.860Z,21.09
2018-06-28T05:00:45.597Z,21.34
2018-06-28T05:01:45.537Z,21.27
2018-06-28T05:03:38.331Z,21.45
2018-06-28T05:04:38.325Z,21.48
2018-06-28T05:06:31.105Z,21.55
2018-06-28T05:07:30.999Z,21.64
2018-06-28T05:09:23.787Z,21.79
2018-06-28T05:10:23.715Z,22.01
2018-06-28T05:12:16.516Z,22.27
2018-06-28T05:13:16.467Z,22.45
2018-06-28T05:15:09.294Z,22.59
2018-06-28T05:16:09.168Z,22.64
2018-06-28T05:18:01.961Z,22.67
2018-06-28T05:19:01.886Z,22.49
2018-06-28T05:20:54.655Z,22.81
2018-06-28T05:21:54.598Z,23.23
2018-06-28T05:23:47.421Z,23.68
2018-06-28T05:24:47.337Z,23.78
2018-06-28T05:26:40.119Z,24.18
2018-06-28T05:27:40.063Z,24.33
2018-06-28T05:29:32.851Z,24.26
2018-06-28T05:30:32.785Z,24.29
2018-06-28T05:32:25.592Z,24.89
2018-06-28T05:33:25.519Z,24.92
2018-06-28T05:35:18.318Z,24.52
2018-06-28T05:36:18.242Z,24.71
2018-06-28T05:38:11.073Z,24.94
2018-06-28T05:39:10.991Z,25.09
2018-06-28T05:41:03.784Z,25.60
2018-06-28T05:42:03.728Z,25.86
2018-06-28T05:43:56.496Z,26.11
2018-06-28T05:44:56.451Z,26.20
2018-06-28T05:46:49.215Z,25.79
2018-06-28T05:47:49.151Z,25.96
2018-06-28T05:49:41.962Z,25.83
2018-06-28T05:50:41.898Z,25.71
2018-06-28T05:52:34.669Z,25.38
2018-06-28T05:53:34.612Z,25.11
2018-06-28T05:55:27.429Z,25.16
2018-06-28T05:56:27.345Z,25.27
2018-06-28T05:58:20.139Z,24.94
2018-06-28T05:59:20.078Z,24.86
2018-06-28T06:01:12.863Z,24.64
2018-06-28T06:02:12.793Z,24.82
2018-06-28T06:04:05.581Z,25.04
2018-06-28T06:05:05.510Z,25.30
2018-06-28T06:06:58.305Z,25.54
2018-06-28T06:07:58.236Z,25.53
2018-06-28T06:09:51.012Z,25.69
2018-06-28T06:10:50.939Z,25.79
2018-06-28T06:12:43.708Z,25.45
2018-06-28T06:13:43.651Z,25.24
2018-06-28T06:15:36.451Z,25.49
2018-06-28T06:16:36.379Z,25.79
2018-06-28T06:18:29.191Z,26.04
2018-06-28T06:19:29.136Z,26.32
2018-06-28T06:21:21.960Z,26.76
2018-06-28T06:22:21.879Z,27.05
2018-06-28T06:24:14.690Z,27.38
2018-06-28T06:25:14.618Z,27.40
2018-06-28T06:27:07.407Z,27.38
2018-06-28T06:28:07.348Z,27.65
2018-06-28T06:30:00.193Z,27.84
2018-06-28T06:31:00.125Z,28.09
2018-06-28T06:32:52.904Z,28.42
2018-06-28T06:33:52.844Z,28.20
2018-06-28T06:35:45.674Z,28.32
2018-06-28T06:36:45.606Z,28.17
2018-06-28T06:38:38.501Z,28.74
2018-06-28T06:39:38.354Z,28.64
2018-06-28T06:41:31.180Z,28.62
2018-06-28T06:42:31.111Z,28.30
2018-06-28T06:44:23.915Z,28.23
2018-06-28T06:45:23.839Z,28.03
2018-06-28T06:47:16.664Z,28.30
2018-06-28T06:48:16.579Z,28.46
2018-06-28T06:50:09.402Z,28.45
2018-06-28T06:51:09.310Z,28.58
2018-06-28T06:53:02.149Z,28.95
2018-06-28T06:54:02.079Z,29.20
2018-06-28T06:55:54.906Z,29.64
2018-06-28T06:56:54.826Z,29.62
2018-06-28T06:58:47.669Z,29.36
2018-06-28T06:59:47.590Z,29.35
2018-06-28T07:01:40.419Z,29.17
2018-06-28T07:02:40.348Z,29.18
2018-06-28T07:04:33.133Z,29.02
2018-06-28T07:05:33.080Z,28.95
2018-06-28T07:07:25.897Z,29.49
2018-06-28T07:08:25.820Z,29.92
2018-06-28T07:10:18.656Z,30.72
2018-06-28T07:11:18.556Z,30.36
2018-06-28T07:13:11.342Z,30.18
2018-06-28T07:14:11.288Z,30.08
2018-06-28T07:16:04.216Z,29.71
2018-06-28T07:17:04.071Z,29.67
2018-06-28T07:18:56.878Z,29.79
2018-06-28T07:19:56.816Z,29.60
2018-06-28T07:21:49.606Z,29.32
2018-06-28T07:22:49.646Z,29.07
2018-06-28T07:24:42.350Z,29.27
2018-06-28T07:25:42.298Z,29.42
2018-06-28T07:27:35.108Z,29.88
2018-06-28T07:28:35.071Z,29.97
2018-06-28T07:30:27.869Z,29.51
2018-06-28T07:31:27.764Z,29.74
2018-06-28T07:33:20.572Z,29.55
2018-06-28T07:34:20.522Z,29.44
2018-06-28T07:36:13.351Z,29.42
2018-06-28T07:37:13.273Z,29.54
2018-06-28T07:39:06.080Z,29.60
2018-06-28T07:40:06.044Z,29.54
2018-06-28T07:41:58.824Z,30.18
2018-06-28T07:42:58.757Z,30.63
2018-06-28T07:44:51.567Z,30.59
2018-06-28T07:45:51.587Z,30.30
2018-06-28T07:47:44.323Z,30.51
2018-06-28T07:48:44.246Z,30.67
2018-06-28T07:50:37.074Z,30.78
2018-06-28T07:51:36.986Z,30.46
2018-06-28T07:53:29.784Z,30.66
2018-06-28T07:54:29.725Z,30.66
2018-06-28T07:56:22.551Z,30.97
2018-06-28T07:57:22.466Z,30.81
2018-06-28T07:59:15.256Z,30.46
2018-06-28T08:00:15.201Z,30.64
2018-06-28T08:02:08.010Z,30.68
2018-06-28T08:03:07.935Z,30.76
2018-06-28T08:05:00.748Z,31.09
2018-06-28T08:06:00.739Z,31.25
2018-06-28T08:07:53.504Z,30.94
2018-06-28T08:08:53.432Z,31.10
2018-06-28T08:10:46.208Z,30.98
2018-06-28T08:11:46.149Z,30.36
2018-06-28T08:13:38.959Z,30.94
2018-06-28T08:14:38.897Z,31.34
2018-06-28T08:16:31.709Z,31.13
2018-06-28T08:17:31.634Z,31.10
2018-06-28T08:19:24.438Z,31.19
2018-06-28T08:20:24.372Z,31.50
2018-06-28T08:22:17.189Z,31.72
2018-06-28T08:23:17.162Z,32.16
2018-06-28T08:25:09.955Z,32.68
2018-06-28T08:26:09.872Z,32.24
2018-06-28T08:28:02.666Z,32.05
2018-06-28T08:29:02.607Z,31.98
2018-06-28T08:30:55.401Z,31.60
2018-06-28T08:31:55.341Z,31.76
2018-06-28T08:33:48.132Z,31.76
2018-06-28T08:34:48.075Z,31.19
2018-06-28T08:36:40.869Z,30.67
2018-06-28T08:37:40.811Z,30.26
2018-06-28T08:39:33.609Z,30.07
2018-06-28T08:40:33.546Z,30.42
2018-06-28T08:42:26.367Z,30.63
2018-06-28T08:43:26.290Z,30.59
2018-06-28T08:45:19.094Z,30.76
2018-06-28T08:46:19.036Z,30.82
2018-06-28T08:48:11.845Z,30.98
2018-06-28T08:49:11.767Z,31.38
2018-06-28T08:51:04.580Z,31.82
2018-06-28T08:52:04.520Z,32.16
2018-06-28T08:53:57.341Z,31.91
2018-06-28T08:54:57.275Z,31.87
2018-06-28T08:56:50.065Z,32.10
2018-06-28T08:59:42.815Z,30.93
2018-06-28T09:00:42.727Z,31.10
2018-06-28T09:02:35.537Z,31.27
2018-06-28T09:03:35.463Z,31.15
2018-06-28T09:05:28.282Z,30.66
2018-06-28T09:06:28.212Z,31.05
2018-06-28T09:08:21.038Z,31.10
2018-06-28T09:09:20.954Z,31.46
2018-06-28T09:11:13.759Z,31.13
2018-06-28T09:12:13.695Z,30.97
2018-06-28T09:14:06.501Z,31.62
2018-06-28T09:15:06.424Z,31.72
2018-06-28T09:16:59.214Z,31.87
2018-06-28T09:17:59.184Z,31.72
2018-06-28T09:19:51.965Z,31.82
2018-06-28T09:20:51.906Z,31.65
2018-06-28T09:22:44.786Z,31.69
2018-06-28T09:23:44.642Z,31.64
2018-06-28T09:25:37.429Z,31.57
2018-06-28T09:26:37.369Z,31.90
2018-06-28T09:28:30.202Z,31.84
2018-06-28T09:29:30.102Z,31.87
2018-06-28T09:31:22.894Z,31.95
2018-06-28T09:32:22.837Z,31.84
2018-06-28T09:34:15.636Z,31.57
2018-06-28T09:35:15.578Z,31.59
2018-06-28T09:37:08.362Z,30.78
2018-06-28T09:38:08.335Z,30.46
2018-06-28T09:40:01.142Z,30.90
2018-06-28T09:41:01.064Z,31.03
2018-06-28T09:42:53.910Z,30.79
2018-06-28T09:43:53.813Z,30.76
2018-06-28T09:45:46.603Z,30.68
2018-06-28T09:46:46.553Z,30.59
2018-06-28T09:48:39.367Z,31.00
2018-06-28T09:49:39.272Z,31.10
2018-06-28T09:51:32.409Z,31.05
2018-06-28T09:52:32.005Z,30.97
2018-06-28T09:54:24.856Z,30.19
2018-06-28T09:55:24.792Z,30.25
2018-06-28T09:57:17.577Z,30.42
2018-06-28T09:58:17.533Z,30.57
2018-06-28T10:00:10.352Z,30.57
2018-06-28T10:01:10.264Z,30.66
2018-06-28T10:03:03.063Z,30.73
2018-06-28T10:04:03.000Z,30.70
2018-06-28T10:05:55.807Z,30.70
2018-06-28T10:06:55.763Z,30.76
2018-06-28T10:08:48.548Z,31.00
2018-06-28T10:09:48.479Z,31.37
2018-06-28T10:11:41.258Z,31.37
2018-06-28T10:12:41.203Z,31.23
2018-06-28T10:14:34.030Z,31.10
2018-06-28T10:15:33.945Z,30.93
2018-06-28T10:17:26.727Z,30.98
2018-06-28T10:18:26.672Z,30.88
2018-06-28T10:20:19.506Z,29.82
2018-06-28T10:21:19.446Z,29.67
2018-06-28T10:23:12.296Z,29.58
2018-06-28T10:24:12.235Z,29.63
2018-06-28T10:26:05.042Z,29.32
2018-06-28T10:27:04.968Z,29.36
2018-06-28T10:28:57.797Z,29.74
2018-06-28T10:29:57.704Z,30.07
2018-06-28T10:31:50.497Z,30.49
2018-06-28T10:32:50.474Z,30.49
2018-06-28T10:34:43.313Z,30.18
2018-06-28T10:35:43.198Z,29.91
2018-06-28T10:37:35.993Z,29.85
2018-06-28T10:38:35.924Z,29.62
2018-06-28T10:40:28.731Z,29.94
2018-06-28T10:41:28.686Z,29.97
2018-06-28T10:43:21.523Z,30.40
2018-06-28T10:44:21.533Z,30.34
2018-06-28T10:46:14.283Z,29.85
2018-06-28T10:47:14.204Z,29.81
2018-06-28T10:49:07.052Z,30.16
2018-06-28T10:50:06.948Z,30.04
2018-06-28T10:51:59.754Z,30.01
2018-06-28T10:52:59.703Z,30.19
2018-06-28T10:54:52.500Z,30.26
2018-06-28T10:55:52.421Z,30.42
2018-06-28T10:57:45.234Z,30.49
2018-06-28T10:58:45.178Z,30.32
2018-06-28T11:00:37.981Z,30.44
2018-06-28T11:01:37.891Z,30.63
2018-06-28T11:03:30.683Z,30.19
2018-06-28T11:04:30.625Z,29.79
2018-06-28T11:06:23.430Z,29.76
2018-06-28T11:07:23.356Z,29.70
2018-06-28T11:09:16.162Z,29.67
2018-06-28T11:10:16.088Z,29.47
2018-06-28T11:12:08.897Z,28.98
2018-06-28T11:13:08.824Z,28.77
2018-06-28T11:15:01.921Z,28.60
2018-06-28T11:16:01.574Z,28.48
2018-06-28T11:17:54.349Z,28.65
2018-06-28T11:18:54.288Z,28.65
2018-06-28T11:20:47.111Z,29.07
2018-06-28T11:21:47.019Z,29.23
2018-06-28T11:23:39.813Z,29.54
2018-06-28T11:24:39.775Z,29.60
2018-06-28T11:26:32.682Z,29.73
2018-06-28T11:27:32.550Z,29.79
2018-06-28T11:29:25.341Z,29.48
2018-06-28T11:30:25.285Z,29.10
2018-06-28T11:32:18.105Z,29.15
2018-06-28T11:33:18.037Z,29.18
2018-06-28T11:35:10.885Z,29.45
2018-06-28T11:36:10.835Z,29.48
2018-06-28T11:38:03.621Z,29.51
2018-06-28T11:39:03.557Z,29.42
2018-06-28T11:40:58.056Z,29.29
2018-06-28T11:41:57.986Z,29.26
2018-06-28T11:43:50.760Z,29.05
2018-06-28T11:44:50.703Z,28.76
2018-06-28T11:46:43.506Z,28.62
2018-06-28T11:47:43.441Z,28.55
2018-06-28T11:49:36.222Z,28.73
2018-06-28T11:50:36.165Z,28.94
2018-06-28T11:52:28.961Z,29.21
2018-06-28T11:53:28.903Z,29.27
2018-06-28T11:55:21.721Z,29.27
2018-06-28T11:56:21.628Z,29.52
2018-06-28T11:58:14.411Z,29.44
2018-06-28T11:59:14.368Z,29.05
2018-06-28T12:01:07.200Z,28.65
2018-06-28T12:02:07.104Z,28.51
2018-06-28T12:03:59.891Z,28.57
2018-06-28T12:04:59.837Z,28.60
2018-06-28T12:06:52.659Z,28.70
2018-06-28T12:07:52.550Z,28.76
2018-06-28T12:09:45.364Z,28.82
2018-06-28T12:10:45.301Z,28.72
2018-06-28T12:12:38.110Z,28.72
2018-06-28T12:13:38.030Z,28.79
2018-06-28T12:15:30.870Z,29.03
2018-06-28T12:16:30.751Z,28.98
2018-06-28T12:18:23.557Z,28.88
2018-06-28T12:19:23.490Z,28.70
2018-06-28T12:21:16.284Z,28.28
2018-06-28T12:22:16.226Z,28.03
2018-06-28T12:24:09.151Z,27.69
2018-06-28T12:25:08.942Z,27.72
2018-06-28T12:27:01.747Z,27.95
2018-06-28T12:28:01.660Z,28.08
2018-06-28T12:29:54.459Z,28.35
2018-06-28T12:30:54.401Z,28.54
2018-06-28T12:32:47.212Z,28.79
2018-06-28T12:33:47.140Z,29.03
2018-06-28T12:35:39.921Z,29.03
2018-06-28T12:36:39.875Z,28.83
2018-06-28T12:38:32.666Z,28.64
2018-06-28T12:39:32.588Z,28.52
2018-06-28T12:41:25.374Z,28.17
2018-06-28T12:42:25.348Z,28.17
2018-06-28T12:44:18.100Z,28.14
2018-06-28T12:45:18.035Z,28.33
2018-06-28T12:47:10.838Z,28.51
2018-06-28T12:48:10.754Z,28.51
2018-06-28T12:50:03.529Z,28.42
2018-06-28T12:51:03.473Z,28.32
2018-06-28T12:52:56.273Z,28.30
2018-06-28T12:53:56.234Z,28.32
2018-06-28T12:55:49.000Z,28.36
2018-06-28T12:56:48.935Z,28.30
2018-06-28T12:58:41.757Z,28.18
2018-06-28T12:59:41.671Z,28.14
2018-06-28T13:01:34.457Z,28.20
2018-06-28T13:02:34.394Z,28.02
2018-06-28T13:04:27.194Z,28.06
2018-06-28T13:05:27.119Z,28.03
2018-06-28T13:07:19.907Z,28.21
2018-06-28T13:08:19.847Z,28.17
2018-06-28T13:10:12.668Z,28.08
2018-06-28T13:11:12.591Z,28.08
2018-06-28T13:13:05.423Z,27.96
2018-06-28T13:14:05.316Z,27.90
2018-06-28T13:15:58.089Z,27.96
2018-06-28T13:16:58.034Z,27.96
2018-06-28T13:18:50.945Z,27.96
2018-06-28T13:19:50.752Z,28.02
2018-06-28T13:21:43.529Z,28.08
2018-06-28T13:22:43.475Z,28.11
2018-06-28T13:24:36.313Z,28.18
2018-06-28T13:25:36.199Z,28.18
2018-06-28T13:27:28.993Z,28.18
2018-06-28T13:28:28.953Z,28.35
2018-06-28T13:30:21.741Z,28.65
2018-06-28T13:31:21.673Z,28.76
2018-06-28T13:33:15.353Z,28.77
2018-06-28T13:34:15.279Z,28.77
2018-06-28T13:36:08.111Z,28.70
2018-06-28T13:37:07.997Z,28.55
2018-06-28T13:39:00.790Z,28.51
2018-06-28T13:40:00.720Z,28.46
2018-06-28T13:41:53.577Z,28.32
2018-06-28T13:42:53.444Z,28.28
2018-06-28T13:44:46.229Z,28.11
2018-06-28T13:45:46.172Z,28.13
2018-06-28T13:47:38.944Z,27.95
2018-06-28T13:48:38.874Z,27.77
2018-06-28T13:50:31.671Z,27.63
2018-06-28T13:51:31.601Z,27.59
2018-06-28T13:53:24.412Z,27.53
2018-06-28T13:54:24.348Z,27.69
2018-06-28T13:56:17.143Z,27.86
2018-06-28T13:57:17.079Z,28.02
2018-06-28T13:59:09.848Z,28.05
2018-06-28T14:00:09.788Z,28.14
2018-06-28T14:02:02.599Z,28.17
2018-06-28T14:03:02.553Z,28.23
2018-06-28T14:04:55.299Z,28.32
2018-06-28T14:05:55.256Z,28.40
2018-06-28T14:07:48.041Z,28.33
2018-06-28T14:08:47.969Z,28.23
2018-06-28T14:10:40.789Z,28.23
2018-06-28T14:11:40.710Z,28.24
2018-06-28T14:13:33.485Z,28.54
2018-06-28T14:14:33.462Z,28.60
2018-06-28T14:16:26.254Z,28.62
2018-06-28T14:17:26.164Z,28.69
2018-06-28T14:19:18.959Z,28.91
2018-06-28T14:20:18.903Z,29.08
2018-06-28T14:22:11.717Z,29.03
2018-06-28T14:23:11.642Z,29.21
2018-06-28T14:25:04.442Z,29.41
2018-06-28T14:26:04.381Z,29.29
2018-06-28T14:27:57.233Z,28.98
2018-06-28T14:28:57.127Z,29.02
2018-06-28T14:30:50.428Z,28.39
2018-06-28T14:31:50.360Z,28.32
2018-06-28T14:33:43.210Z,28.28
2018-06-28T14:34:43.099Z,28.20
2018-06-28T14:36:35.902Z,28.30
2018-06-28T14:37:35.830Z,28.38
2018-06-28T14:39:28.678Z,28.33
2018-06-28T14:40:28.556Z,28.32
2018-06-28T14:42:21.352Z,28.30
2018-06-28T14:43:21.263Z,28.27
2018-06-28T14:45:14.061Z,28.25
2018-06-28T14:46:14.002Z,28.20
2018-06-28T14:48:06.784Z,28.09
2018-06-28T14:49:06.710Z,27.98
2018-06-28T14:50:59.494Z,28.06
2018-06-28T14:51:59.449Z,28.03
2018-06-28T14:53:52.227Z,28.02
2018-06-28T14:54:52.166Z,27.77
2018-06-28T14:56:44.960Z,27.69
2018-06-28T14:57:44.910Z,27.72
2018-06-28T14:59:37.671Z,27.74
2018-06-28T15:00:37.658Z,27.68
2018-06-28T15:02:30.403Z,27.69
2018-06-28T15:03:30.337Z,27.76
2018-06-28T15:05:23.170Z,27.72
2018-06-28T15:06:23.105Z,27.72
2018-06-28T15:08:15.898Z,27.66
2018-06-28T15:09:15.830Z,27.69
2018-06-28T15:11:08.622Z,27.88
2018-06-28T15:12:08.556Z,27.98
2018-06-28T15:14:01.354Z,27.90
2018-06-28T15:15:01.374Z,27.84
2018-06-28T15:16:54.122Z,28.01
2018-06-28T15:17:54.024Z,27.99
2018-06-28T15:19:46.821Z,28.14
2018-06-28T15:20:46.751Z,28.13
2018-06-28T15:22:39.567Z,28.18
2018-06-28T15:23:39.476Z,28.27
2018-06-28T15:25:32.263Z,28.15
2018-06-28T15:26:32.209Z,28.21
2018-06-28T15:28:25.009Z,28.24
2018-06-28T15:29:24.929Z,28.13
2018-06-28T15:31:17.797Z,28.05
2018-06-28T15:32:17.712Z,27.95
2018-06-28T15:34:10.517Z,27.76
2018-06-28T15:35:10.447Z,27.74
2018-06-28T15:37:03.245Z,27.95
2018-06-28T15:38:03.169Z,27.96
2018-06-28T15:39:55.974Z,28.03
2018-06-28T15:40:55.897Z,28.08
2018-06-28T15:42:48.697Z,28.17
2018-06-28T15:43:48.613Z,28.21
2018-06-28T15:45:41.435Z,28.36
2018-06-28T15:46:41.347Z,28.32
2018-06-28T15:48:34.143Z,28.08
2018-06-28T15:49:34.080Z,28.01
2018-06-28T15:51:26.863Z,28.02
2018-06-28T15:52:26.804Z,27.98
2018-06-28T15:54:19.607Z,27.96
2018-06-28T15:55:19.535Z,27.95
2018-06-28T15:57:12.336Z,27.98
2018-06-28T15:58:12.256Z,27.83
2018-06-28T16:00:05.065Z,27.78
2018-06-28T16:01:04.989Z,27.83
2018-06-28T16:02:57.828Z,27.78
2018-06-28T16:03:57.704Z,27.77
2018-06-28T16:05:50.508Z,27.78
2018-06-28T16:06:50.466Z,27.81
2018-06-28T16:08:43.244Z,27.72
2018-06-28T16:09:43.166Z,27.65
2018-06-28T16:11:35.952Z,27.63
2018-06-28T16:12:35.903Z,27.66
2018-06-28T16:14:28.715Z,27.59
2018-06-28T16:15:28.626Z,27.49
2018-06-28T16:17:21.407Z,27.39
2018-06-28T16:18:21.356Z,27.34
2018-06-28T16:20:14.151Z,27.31
2018-06-28T16:21:14.082Z,27.18
2018-06-28T16:23:06.877Z,27.15
2018-06-28T16:24:06.822Z,27.02
2018-06-28T16:25:59.628Z,26.98
2018-06-28T16:26:59.555Z,27.02
2018-06-28T16:28:52.360Z,27.06
2018-06-28T16:29:52.293Z,26.94
2018-06-28T16:31:46.565Z,27.08
2018-06-28T16:32:46.505Z,27.08
2018-06-28T16:34:39.294Z,27.05
2018-06-28T16:35:39.222Z,27.06
2018-06-28T16:37:31.999Z,26.98
2018-06-28T16:38:31.944Z,27.08
2018-06-28T16:40:24.722Z,26.91
2018-06-28T16:41:24.652Z,26.98
2018-06-28T16:43:17.429Z,26.94
2018-06-28T16:44:17.365Z,26.90
2018-06-28T16:46:10.197Z,26.97
2018-06-28T16:47:10.101Z,26.86
2018-06-28T16:49:02.891Z,26.87
2018-06-28T16:50:02.826Z,26.83
2018-06-28T16:51:55.611Z,26.76
2018-06-28T16:52:55.581Z,26.75
2018-06-28T16:54:48.345Z,26.73
2018-06-28T16:55:48.305Z,26.65
2018-06-28T16:57:41.100Z,26.59
2018-06-28T16:58:40.993Z,26.54
2018-06-28T17:00:33.787Z,26.44
2018-06-28T17:01:33.713Z,26.49
2018-06-28T17:03:26.515Z,26.28
2018-06-28T17:04:26.516Z,26.24
2018-06-28T17:06:19.250Z,26.23
2018-06-28T17:07:19.189Z,26.17
2018-06-28T17:09:11.970Z,26.20
2018-06-28T17:10:11.931Z,26.13
2018-06-28T17:12:04.689Z,26.09
2018-06-28T17:13:04.621Z,26.08
2018-06-28T17:14:57.429Z,25.98
2018-06-28T17:15:57.384Z,26.03
2018-06-28T17:17:50.139Z,26.01
2018-06-28T17:18:50.077Z,26.04
2018-06-28T17:20:42.872Z,26.12
2018-06-28T17:21:42.798Z,26.13
2018-06-28T17:23:35.597Z,26.12
2018-06-28T17:24:35.544Z,26.19
2018-06-28T17:26:28.350Z,26.24
2018-06-28T17:27:28.276Z,26.29
2018-06-28T17:29:21.049Z,26.34
2018-06-28T17:30:20.984Z,26.27
2018-06-28T17:32:13.792Z,26.41
2018-06-28T17:33:13.714Z,26.35
2018-06-28T17:35:06.516Z,26.28
2018-06-28T17:36:06.450Z,26.31
2018-06-28T17:37:59.225Z,26.29
2018-06-28T17:38:59.183Z,26.28
2018-06-28T17:40:51.957Z,26.23
2018-06-28T17:41:51.896Z,26.21
2018-06-28T17:43:44.648Z,26.27
2018-06-28T17:44:44.596Z,26.19
2018-06-28T17:46:37.435Z,26.24
2018-06-28T17:47:37.513Z,26.23
2018-06-28T17:49:30.162Z,26.29
2018-06-28T17:50:30.068Z,26.35
2018-06-28T17:52:22.914Z,26.31
2018-06-28T17:53:22.788Z,26.32
2018-06-28T17:55:15.589Z,26.27
2018-06-28T17:56:15.510Z,26.29
2018-06-28T17:58:08.285Z,26.23
2018-06-28T17:59:08.231Z,26.23
2018-06-28T18:01:01.047Z,26.20
2018-06-28T18:02:00.977Z,26.17
2018-06-28T18:03:53.770Z,26.11
2018-06-28T18:04:53.774Z,26.03
2018-06-28T18:06:46.529Z,26.04
2018-06-28T18:07:46.451Z,26.03
2018-06-28T18:09:39.244Z,25.96
2018-06-28T18:10:39.181Z,26.03
2018-06-28T18:12:31.997Z,26.11
2018-06-28T18:13:31.916Z,25.97
2018-06-28T18:15:24.713Z,26.00
2018-06-28T18:16:24.640Z,25.97
2018-06-28T18:18:17.439Z,26.03
2018-06-28T18:19:17.368Z,26.11
2018-06-28T18:21:10.161Z,26.20
2018-06-28T18:22:10.131Z,26.23
2018-06-28T18:24:02.867Z,26.27
2018-06-28T18:25:02.806Z,26.19
2018-06-28T18:26:55.596Z,26.42
2018-06-28T18:27:55.521Z,26.65
2018-06-28T18:29:48.301Z,26.83
2018-06-28T18:30:48.232Z,26.61
2018-06-28T18:32:41.048Z,26.47
2018-06-28T18:33:40.966Z,26.38